aviador You're here:

KSSF Decoded Metar

S ANTONIO/STINSN in TX, USA
Report Time2018-01-17 05:53:00
UTC Time2018-01-17 06:47:13
Flight Rules vfr VFR
Wind360° at 05 kt
W.Decomp.*RWY 32: 4.2 kt HW 2.6 kt RCW
RWY 27: 0.7 kt HW 5.0 kt RCW
Visibility9999 m
Phenomena:N/A
Clouds:Overcast 090 Hf
Expected CloudBase > 4,800 ft AGL from Temp-Dew spread
Ceiling9,000 ft
Temp-1°C (ISA -15)
Dew Point-13°C (40% RH)
AAT-6.1°C
QNH1040 hPa
Density Alt-2,119 ft
Elevation577 ft
Report Wrong Elevation
Raw Report
METAR KSSF 170553Z AUTO 36005KT 10SM OVC090 M01/M13 A3071 RMK AO2 SLP411
T10061133 10000 21006 400941017 50004=

Extra information for KSSF:More info

Metar Taf Metar & Taf Last 4 Metars F.Rules Stats Wind Profile Meteogram Temp Stats Airport Information Weather charts Add Link Nearby VenuesMetar ALERT Operation Metar Decoded Social comments

AIRNAV info for KSSF